TimeMST,TemperatureF,Dew PointF,Humidity,Sea Level PressureIn,VisibilityMPH,Wind Direction,Wind SpeedMPH,Gust SpeedMPH,PrecipitationIn,Events,Conditions,WindDirDegrees,DateUTC
12:54 AM,32.0,5.0,32,29.99,10.0,NE,6.9,-,N/A,,Clear,40,2013-01-07 07:54:00
1:54 AM,33.1,3.9,29,29.98,10.0,NNE,6.9,-,N/A,,Clear,20,2013-01-07 08:54:00
2:54 AM,35.1,3.9,27,29.97,10.0,NNW,6.9,-,N/A,,Partly Cloudy,340,2013-01-07 09:54:00
3:54 AM,35.6,3.2,26,29.94,10.0,North,6.9,-,N/A,,Partly Cloudy,360,2013-01-07 10:54:00
4:54 AM,36.0,3.9,26,29.98,10.0,NNW,3.5,-,N/A,,Partly Cloudy,330,2013-01-07 11:54:00
5:54 AM,34.0,5.0,30,29.99,10.0,North,9.2,-,N/A,,Scattered Clouds,10,2013-01-07 12:54:00
6:54 AM,33.1,6.1,32,30.05,10.0,West,5.8,-,N/A,,Partly Cloudy,280,2013-01-07 13:54:00
7:54 AM,37.0,7.0,29,30.05,10.0,North,5.8,-,N/A,,Partly Cloudy,10,2013-01-07 14:54:00
8:54 AM,45.0,-2.9,14,30.04,10.0,NE,13.8,-,N/A,,Partly Cloudy,50,2013-01-07 15:54:00
9:54 AM,42.1,6.1,23,30.06,10.0,WNW,8.1,-,N/A,,Clear,300,2013-01-07 16:54:00
10:54 AM,45.0,6.1,20,30.03,10.0,Calm,Calm,-,N/A,,Clear,0,2013-01-07 17:54:00
11:54 AM,48.2,-2.2,12,29.97,10.0,East,8.1,-,N/A,,Clear,100,2013-01-07 18:54:00
12:54 PM,48.9,-0.9,13,29.92,10.0,SE,6.9,-,N/A,,Partly Cloudy,130,2013-01-07 19:54:00
1:54 PM,50.0,-0.9,12,29.90,10.0,SSE,5.8,-,N/A,,Clear,160,2013-01-07 20:54:00
2:54 PM,48.0,-0.0,14,29.89,10.0,SSE,9.2,-,N/A,,Clear,160,2013-01-07 21:54:00
3:54 PM,46.4,1.4,16,29.92,10.0,South,6.9,-,N/A,,Clear,190,2013-01-07 22:54:00
4:54 PM,39.9,1.0,20,29.94,10.0,SE,6.9,-,N/A,,Clear,130,2013-01-07 23:54:00
5:54 PM,34.0,3.9,28,29.99,10.0,SE,9.2,-,N/A,,Clear,130,2013-01-08 00:54:00
6:54 PM,34.0,6.1,31,29.99,10.0,SE,5.8,-,N/A,,Clear,130,2013-01-08 01:54:00
7:54 PM,30.9,6.1,35,29.98,10.0,Calm,Calm,-,N/A,,Clear,0,2013-01-08 02:54:00
8:54 PM,21.9,5.0,48,29.96,10.0,North,6.9,-,N/A,,Clear,10,2013-01-08 03:54:00
9:54 PM,21.0,5.0,50,29.96,10.0,North,4.6,-,N/A,,Clear,360,2013-01-08 04:54:00
10:54 PM,21.0,6.1,53,29.93,10.0,North,9.2,-,N/A,,Clear,350,2013-01-08 05:54:00
11:54 PM,23.0,7.0,50,29.89,10.0,North,8.1,-,N/A,,Clear,360,2013-01-08 06:54:00